createdAt,value
2018-05-24T00:01:11.963Z,9.17
2018-05-24T00:03:38.837Z,9.90
2018-05-24T00:06:05.680Z,9.40
2018-05-24T00:08:32.538Z,8.83
2018-05-24T00:10:59.503Z,9.40
2018-05-24T00:13:26.375Z,9.10
2018-05-24T00:15:53.410Z,8.40
2018-05-24T00:18:20.249Z,9.20
2018-05-24T00:20:47.249Z,8.77
2018-05-24T00:23:14.192Z,8.70
2018-05-24T00:25:41.035Z,8.77
2018-05-24T00:28:07.910Z,9.03
2018-05-24T00:30:34.772Z,8.97
2018-05-24T00:33:01.632Z,9.00
2018-05-24T00:35:28.569Z,9.30
2018-05-24T00:37:55.443Z,9.10
2018-05-24T00:40:22.400Z,9.67
2018-05-24T00:42:49.303Z,10.00
2018-05-24T00:45:16.271Z,9.50
2018-05-24T00:47:43.120Z,9.30
2018-05-24T00:50:09.968Z,9.70
2018-05-24T00:52:36.898Z,9.07
2018-05-24T00:55:15.610Z,9.47
2018-05-24T00:57:42.454Z,9.10
2018-05-24T01:00:09.712Z,9.93
2018-05-24T01:02:36.958Z,9.83
2018-05-24T01:05:03.840Z,9.83
2018-05-24T01:07:31.132Z,10.20
2018-05-24T01:09:57.974Z,10.03
2018-05-24T01:12:24.947Z,9.90
2018-05-24T01:14:51.792Z,11.27
2018-05-24T01:17:18.641Z,11.03
2018-05-24T01:19:45.526Z,10.57
2018-05-24T01:22:12.355Z,9.80
2018-05-24T01:24:39.622Z,11.80
2018-05-24T01:27:06.502Z,10.87
2018-05-24T01:29:33.357Z,10.30
2018-05-24T01:32:00.314Z,11.30
2018-05-24T01:34:27.173Z,11.37
2018-05-24T01:37:06.136Z,12.97
2018-05-24T01:39:33.074Z,11.83
2018-05-24T01:41:59.941Z,11.70
2018-05-24T01:44:26.786Z,12.10
2018-05-24T01:46:53.648Z,12.37
2018-05-24T01:49:20.510Z,12.40
2018-05-24T01:51:47.426Z,12.07
2018-05-24T01:54:14.271Z,12.47
2018-05-24T01:56:41.124Z,11.93
2018-05-24T01:59:08.002Z,12.17
2018-05-24T02:01:35.246Z,11.00
2018-05-24T02:04:02.120Z,11.87
2018-05-24T02:06:28.956Z,12.60
2018-05-24T02:08:55.866Z,11.67
2018-05-24T02:11:22.736Z,11.57
2018-05-24T02:13:49.819Z,12.07
2018-05-24T02:16:16.739Z,11.83
2018-05-24T02:18:43.998Z,11.53
2018-05-24T02:21:10.943Z,11.53
2018-05-24T02:23:37.832Z,10.63
2018-05-24T02:26:04.678Z,10.43
2018-05-24T02:28:31.518Z,11.27
2018-05-24T02:30:58.819Z,11.97
2018-05-24T02:33:25.669Z,12.50
2018-05-24T02:35:52.636Z,12.07
2018-05-24T02:38:19.388Z,12.60
2018-05-24T02:40:46.279Z,11.60
2018-05-24T02:43:13.212Z,10.37
2018-05-24T02:45:40.162Z,10.70
2018-05-24T02:48:07.028Z,11.47
2018-05-24T02:50:33.875Z,10.43
2018-05-24T02:53:00.872Z,10.90
2018-05-24T02:55:27.720Z,11.40
2018-05-24T02:57:55.465Z,11.13
2018-05-24T03:00:22.344Z,11.07
2018-05-24T03:02:49.191Z,10.50
2018-05-24T03:05:16.045Z,11.00
2018-05-24T03:07:42.944Z,12.50
2018-05-24T03:10:09.789Z,12.23
2018-05-24T03:12:36.707Z,11.10
2018-05-24T03:15:03.944Z,11.13
2018-05-24T03:17:30.840Z,10.30
2018-05-24T03:19:57.787Z,11.77
2018-05-24T03:22:24.642Z,12.03
2018-05-24T03:24:51.514Z,13.00
2018-05-24T03:27:18.471Z,11.43
2018-05-24T03:29:45.332Z,10.67
2018-05-24T03:32:12.283Z,10.80
2018-05-24T03:34:39.192Z,10.27
2018-05-24T03:37:06.144Z,11.80
2018-05-24T03:39:33.007Z,11.30
2018-05-24T03:41:59.940Z,14.30
2018-05-24T03:44:26.823Z,11.20
2018-05-24T03:46:53.729Z,9.80
2018-05-24T03:49:20.706Z,10.43
2018-05-24T03:51:47.653Z,10.30
2018-05-24T03:54:14.499Z,10.80
2018-05-24T03:56:41.358Z,10.43
2018-05-24T04:02:29.546Z,9.83
2018-05-24T04:04:59.100Z,9.47
2018-05-24T04:07:26.072Z,10.60
2018-05-24T04:09:53.012Z,9.70
2018-05-24T04:12:19.893Z,9.80
2018-05-24T04:14:46.791Z,9.77
2018-05-24T04:17:14.033Z,9.93
2018-05-24T04:19:40.946Z,10.17
2018-05-24T04:22:07.827Z,10.77
2018-05-24T04:24:34.708Z,12.13
2018-05-24T04:27:01.621Z,9.23
2018-05-24T04:29:28.827Z,10.50
2018-05-24T04:31:55.735Z,9.77
2018-05-24T04:34:22.595Z,8.70
2018-05-24T04:36:49.486Z,8.10
2018-05-24T04:39:16.365Z,9.93
2018-05-24T04:41:43.231Z,9.50
2018-05-24T04:44:10.549Z,10.10
2018-05-24T04:46:37.393Z,8.80
2018-05-24T04:49:04.239Z,8.67
2018-05-24T04:51:31.115Z,10.60
2018-05-24T04:53:57.976Z,9.50
2018-05-24T04:56:24.951Z,9.80
2018-05-24T04:58:51.786Z,9.30
2018-05-24T05:01:18.761Z,8.40
2018-05-24T05:03:45.706Z,8.70
2018-05-24T05:06:12.610Z,10.03
2018-05-24T05:08:39.586Z,9.50
2018-05-24T05:11:06.423Z,8.40
2018-05-24T05:13:33.288Z,8.53
2018-05-24T05:16:00.137Z,7.83
2018-05-24T05:18:27.010Z,7.67
2018-05-24T05:20:54.271Z,8.60
2018-05-24T05:23:21.192Z,8.40
2018-05-24T05:25:48.044Z,8.13
2018-05-24T05:28:15.146Z,7.20
2018-05-24T05:30:42.072Z,7.37
2018-05-24T05:33:08.921Z,8.37
2018-05-24T05:35:35.865Z,7.73
2018-05-24T05:38:02.705Z,7.80
2018-05-24T05:40:29.559Z,7.40
2018-05-24T05:42:56.453Z,7.03
2018-05-24T05:45:23.294Z,7.10
2018-05-24T05:47:50.181Z,7.17
2018-05-24T05:50:17.124Z,8.03
2018-05-24T05:52:43.984Z,7.67
2018-05-24T05:55:10.830Z,7.17
2018-05-24T05:57:37.773Z,6.90
2018-05-24T06:00:04.654Z,6.87
2018-05-24T06:02:31.597Z,6.53
2018-05-24T06:04:58.472Z,7.47
2018-05-24T06:07:25.483Z,6.57
2018-05-24T06:09:52.431Z,7.33
2018-05-24T06:12:19.355Z,7.37
2018-05-24T06:14:46.210Z,6.90
2018-05-24T06:17:13.110Z,7.50
2018-05-24T06:19:39.957Z,10.17
2018-05-24T06:22:06.834Z,8.53
2018-05-24T06:24:34.151Z,8.87
2018-05-24T06:27:01.009Z,8.13
2018-05-24T06:29:27.855Z,7.93
2018-05-24T06:31:54.728Z,7.80
2018-05-24T06:34:21.588Z,7.90
2018-05-24T06:36:48.526Z,8.30
2018-05-24T06:39:15.520Z,8.33
2018-05-24T06:41:42.461Z,7.87
2018-05-24T06:44:09.333Z,8.00
2018-05-24T06:46:36.226Z,7.97
2018-05-24T06:49:03.045Z,8.63
2018-05-24T06:51:29.941Z,7.93
2018-05-24T06:53:57.159Z,7.60
2018-05-24T06:56:24.132Z,8.50
2018-05-24T06:58:50.976Z,8.43
2018-05-24T07:01:17.845Z,8.33
2018-05-24T07:03:44.695Z,8.23
2018-05-24T07:06:11.548Z,7.73
2018-05-24T07:08:38.482Z,8.13
2018-05-24T07:11:05.405Z,8.50
2018-05-24T07:13:32.311Z,8.53
2018-05-24T07:15:59.254Z,8.90
2018-05-24T07:18:26.121Z,8.77
2018-05-24T07:20:53.007Z,9.27
2018-05-24T07:23:19.951Z,7.97
2018-05-24T07:25:46.810Z,9.80
2018-05-24T07:28:13.655Z,8.97
2018-05-24T07:30:40.504Z,8.93
2018-05-24T07:33:07.358Z,8.90
2018-05-24T07:35:34.280Z,8.67
2018-05-24T07:38:01.144Z,9.43
2018-05-24T07:40:28.054Z,8.10
2018-05-24T07:42:54.898Z,9.40
2018-05-24T07:45:21.846Z,8.30
2018-05-24T07:47:48.724Z,9.53
2018-05-24T07:50:15.582Z,8.90
2018-05-24T07:52:42.531Z,8.80
2018-05-24T07:55:09.402Z,8.70
2018-05-24T07:57:36.270Z,7.97
2018-05-24T08:00:03.117Z,8.37
2018-05-24T08:02:29.954Z,9.00
2018-05-24T08:04:56.838Z,8.30
2018-05-24T08:07:23.782Z,8.33
2018-05-24T08:09:50.632Z,9.43
2018-05-24T08:12:17.506Z,8.10
2018-05-24T08:14:44.433Z,8.80
2018-05-24T08:17:11.219Z,8.73
2018-05-24T08:19:38.154Z,8.87
2018-05-24T08:22:05.046Z,9.90
2018-05-24T08:24:31.983Z,9.90
2018-05-24T08:26:58.853Z,9.90
2018-05-24T08:29:25.736Z,8.23
2018-05-24T08:31:52.672Z,8.97
2018-05-24T08:34:19.614Z,9.40
2018-05-24T08:36:46.584Z,9.83
2018-05-24T08:39:13.534Z,8.37
2018-05-24T08:41:40.439Z,9.00
2018-05-24T08:44:07.240Z,10.47
2018-05-24T08:46:34.214Z,9.83
2018-05-24T08:49:01.067Z,10.17
2018-05-24T08:51:27.915Z,9.60
2018-05-24T08:53:54.766Z,11.30
2018-05-24T08:56:21.603Z,9.50
2018-05-24T08:58:48.866Z,10.10
2018-05-24T09:01:16.225Z,9.50
2018-05-24T09:03:43.002Z,9.90
2018-05-24T09:06:09.910Z,9.43
2018-05-24T09:08:36.878Z,8.83
2018-05-24T09:11:03.799Z,9.80
2018-05-24T09:13:30.653Z,9.77
2018-05-24T09:15:57.620Z,10.63
2018-05-24T09:18:24.464Z,10.30
2018-05-24T09:20:51.382Z,11.77
2018-05-24T09:23:18.269Z,10.87
2018-05-24T09:25:45.577Z,11.10
2018-05-24T09:28:12.523Z,11.67
2018-05-24T09:30:39.426Z,11.30
2018-05-24T09:33:06.280Z,11.17
2018-05-24T09:35:33.126Z,12.20
2018-05-24T09:37:59.986Z,11.73
2018-05-24T09:40:26.902Z,10.87
2018-05-24T09:42:53.757Z,12.20
2018-05-24T09:45:20.625Z,11.70
2018-05-24T09:47:47.519Z,10.93
2018-05-24T09:50:14.379Z,10.20
2018-05-24T09:52:41.309Z,13.20
2018-05-24T09:55:08.166Z,12.47
2018-05-24T09:57:35.154Z,13.20
2018-05-24T10:00:02.015Z,9.93
2018-05-24T10:02:28.918Z,11.77
2018-05-24T10:04:55.880Z,10.67
2018-05-24T10:07:22.781Z,10.77
2018-05-24T10:09:49.728Z,11.10
2018-05-24T10:12:16.572Z,11.23
2018-05-24T10:14:43.538Z,11.83
2018-05-24T10:17:10.399Z,12.10
2018-05-24T10:19:37.277Z,12.70
2018-05-24T10:22:04.126Z,11.87
2018-05-24T10:24:31.045Z,11.17
2018-05-24T10:26:57.885Z,12.03
2018-05-24T10:29:25.294Z,11.93
2018-05-24T10:31:52.532Z,10.77
2018-05-24T10:34:19.540Z,9.30
2018-05-24T10:36:46.441Z,11.20
2018-05-24T10:39:13.742Z,11.70
2018-05-24T10:41:40.682Z,10.60
2018-05-24T10:44:07.541Z,11.43
2018-05-24T10:46:34.493Z,11.53
2018-05-24T10:49:01.727Z,12.30
2018-05-24T10:51:29.039Z,12.77
2018-05-24T10:53:56.010Z,13.27
2018-05-24T10:56:22.945Z,11.97
2018-05-24T10:58:50.195Z,10.90
2018-05-24T11:01:17.460Z,13.20
2018-05-24T11:03:44.726Z,12.43
2018-05-24T11:06:12.006Z,12.90
2018-05-24T11:08:38.878Z,13.70
2018-05-24T11:11:05.732Z,12.73
2018-05-24T11:13:32.599Z,13.07
2018-05-24T11:15:59.536Z,11.70
2018-05-24T11:18:26.809Z,12.20
2018-05-24T11:20:53.671Z,11.63
2018-05-24T11:23:20.590Z,12.20
2018-05-24T11:25:47.894Z,10.53
2018-05-24T11:28:14.745Z,10.43
2018-05-24T11:30:41.719Z,11.23
2018-05-24T11:33:08.659Z,12.40
2018-05-24T11:35:35.592Z,10.50
2018-05-24T11:38:02.844Z,11.17
2018-05-24T11:40:29.729Z,8.10
2018-05-24T11:42:57.025Z,8.20
2018-05-24T11:45:23.882Z,8.37
2018-05-24T11:47:50.791Z,8.27
2018-05-24T11:50:17.697Z,8.27
2018-05-24T11:52:44.561Z,8.50
2018-05-24T11:55:11.418Z,6.80
2018-05-24T11:57:38.267Z,7.60
2018-05-24T12:00:05.130Z,8.00
2018-05-24T12:02:32.148Z,6.40
2018-05-24T12:04:59.384Z,5.60
2018-05-24T12:07:26.246Z,5.20
2018-05-24T12:09:53.201Z,5.17
2018-05-24T12:12:20.054Z,4.30
2018-05-24T12:14:46.898Z,4.37
2018-05-24T12:17:13.848Z,4.43
2018-05-24T12:19:40.702Z,4.00
2018-05-24T12:22:07.564Z,4.30
2018-05-24T12:24:34.514Z,5.03
2018-05-24T12:27:01.383Z,4.60
2018-05-24T12:29:28.240Z,4.60
2018-05-24T12:31:55.412Z,5.40
2018-05-24T12:34:22.732Z,5.00
2018-05-24T12:36:49.996Z,4.30
2018-05-24T12:39:17.257Z,4.70
2018-05-24T12:41:44.575Z,4.90
2018-05-24T12:44:11.437Z,4.20
2018-05-24T12:46:38.425Z,4.87
2018-05-24T12:49:05.387Z,4.53
2018-05-24T12:51:32.200Z,5.37
2018-05-24T12:53:59.139Z,4.00
2018-05-24T12:56:25.978Z,4.50
2018-05-24T12:58:53.543Z,4.30
2018-05-24T13:01:20.367Z,4.07
2018-05-24T13:03:47.333Z,4.60
2018-05-24T13:06:14.250Z,4.63
2018-05-24T13:08:41.096Z,3.97
2018-05-24T13:11:08.013Z,4.20
2018-05-24T13:13:34.821Z,3.73
2018-05-24T13:16:01.713Z,4.37
2018-05-24T13:18:28.670Z,4.70
2018-05-24T13:20:55.550Z,4.40
2018-05-24T13:23:22.554Z,3.70
2018-05-24T13:25:49.533Z,4.03
2018-05-24T13:28:16.482Z,3.40
2018-05-24T13:30:43.430Z,4.10
2018-05-24T13:33:10.713Z,3.37
2018-05-24T13:35:37.697Z,3.47
2018-05-24T13:38:04.549Z,3.70
2018-05-24T13:40:31.580Z,3.73
2018-05-24T13:42:58.398Z,3.13
2018-05-24T13:45:25.250Z,3.53
2018-05-24T13:47:52.185Z,4.10
2018-05-24T13:50:19.129Z,4.30
2018-05-24T13:52:46.049Z,3.33
2018-05-24T13:55:13.351Z,3.27
2018-05-24T13:57:43.064Z,3.40
2018-05-24T14:00:10.033Z,3.67
2018-05-24T14:02:36.874Z,3.03
2018-05-24T14:05:03.747Z,3.53
2018-05-24T14:07:30.635Z,4.00
2018-05-24T14:09:57.504Z,5.90
2018-05-24T14:12:24.417Z,3.47
2018-05-24T14:14:51.284Z,3.97
2018-05-24T14:17:18.141Z,3.80
2018-05-24T14:19:45.019Z,3.60
2018-05-24T14:22:11.869Z,4.57
2018-05-24T14:24:39.011Z,3.47
2018-05-24T14:27:05.911Z,4.60
2018-05-24T14:29:32.754Z,4.00
2018-05-24T14:31:59.650Z,3.60
2018-05-24T14:34:26.941Z,4.27
2018-05-24T14:36:54.154Z,4.00
2018-05-24T14:39:21.049Z,5.07
2018-05-24T14:41:48.303Z,4.97
2018-05-24T14:44:15.566Z,4.70
2018-05-24T14:46:42.913Z,5.90
2018-05-24T14:49:09.835Z,4.30
2018-05-24T14:51:36.820Z,4.67
2018-05-24T14:54:03.706Z,4.70
2018-05-24T14:56:30.565Z,5.10
2018-05-24T14:58:57.875Z,4.63
2018-05-24T15:01:24.734Z,5.30
2018-05-24T15:03:51.627Z,9.23
2018-05-24T15:06:18.498Z,9.33
2018-05-24T15:08:45.424Z,5.50
2018-05-24T15:11:12.275Z,4.93
2018-05-24T15:13:50.227Z,4.70
2018-05-24T15:16:17.074Z,4.60
2018-05-24T15:18:43.989Z,4.47
2018-05-24T15:21:10.932Z,4.47
2018-05-24T15:23:38.193Z,5.40
2018-05-24T15:26:05.079Z,4.57
2018-05-24T15:28:31.931Z,5.73
2018-05-24T15:30:58.907Z,5.23
2018-05-24T15:33:25.820Z,5.10
2018-05-24T15:35:52.732Z,4.50
2018-05-24T15:38:19.571Z,4.80
2018-05-24T15:40:46.572Z,5.17
2018-05-24T15:43:13.408Z,4.50
2018-05-24T15:45:40.631Z,5.07
2018-05-24T15:48:07.882Z,5.50
2018-05-24T15:50:34.709Z,4.93
2018-05-24T15:53:01.618Z,4.83
2018-05-24T15:55:28.453Z,4.90
2018-05-24T15:57:55.743Z,3.83
2018-05-24T16:00:22.585Z,4.40
2018-05-24T16:02:49.949Z,4.53
2018-05-24T16:05:17.215Z,4.77
2018-05-24T16:07:44.348Z,4.40
2018-05-24T16:10:11.196Z,4.73
2018-05-24T16:12:38.033Z,4.20
2018-05-24T16:15:04.932Z,4.20
2018-05-24T16:17:31.835Z,4.70
2018-05-24T16:19:58.711Z,4.47
2018-05-24T16:22:25.642Z,3.87
2018-05-24T16:24:52.509Z,4.40
2018-05-24T16:27:19.395Z,3.97
2018-05-24T16:29:46.348Z,4.10
2018-05-24T16:32:13.201Z,3.70
2018-05-24T16:34:40.057Z,3.83
2018-05-24T16:37:06.931Z,4.07
2018-05-24T16:39:33.782Z,4.10
2018-05-24T16:42:00.639Z,4.40
2018-05-24T16:44:27.502Z,4.10
2018-05-24T16:46:54.371Z,4.40
2018-05-24T16:49:21.262Z,3.77
2018-05-24T16:51:48.557Z,4.23
2018-05-24T16:54:15.487Z,3.90
2018-05-24T16:56:42.282Z,3.57
2018-05-24T16:59:09.142Z,3.70
2018-05-24T17:01:36.015Z,3.30
2018-05-24T17:04:02.875Z,3.37
2018-05-24T17:06:29.730Z,2.67
2018-05-24T17:08:56.602Z,2.97
2018-05-24T17:11:23.469Z,4.17
2018-05-24T17:13:50.767Z,2.40
2018-05-24T17:16:17.832Z,2.70
2018-05-24T17:18:44.706Z,2.67
2018-05-24T17:21:11.556Z,2.30
2018-05-24T17:23:38.412Z,2.40
2018-05-24T17:26:05.250Z,3.63
2018-05-24T17:28:32.123Z,2.63
2018-05-24T17:30:58.981Z,3.67
2018-05-24T17:33:25.841Z,2.83
2018-05-24T17:35:52.786Z,3.70
2018-05-24T17:38:19.700Z,2.57
2018-05-24T17:40:46.554Z,3.50
2018-05-24T17:43:13.442Z,2.70
2018-05-24T17:45:40.307Z,3.83
2018-05-24T17:48:07.165Z,3.50
2018-05-24T17:50:34.059Z,3.27
2018-05-24T17:53:00.935Z,3.77
2018-05-24T17:55:27.802Z,4.13
2018-05-24T17:57:54.641Z,3.80
2018-05-24T18:00:21.520Z,3.63
2018-05-24T18:02:48.406Z,4.00
2018-05-24T18:05:15.743Z,3.83
2018-05-24T18:07:42.648Z,3.93
2018-05-24T18:10:09.506Z,4.00
2018-05-24T18:12:36.366Z,3.63
2018-05-24T18:15:03.265Z,3.93
2018-05-24T18:17:30.174Z,4.13
2018-05-24T18:19:57.008Z,3.90
2018-05-24T18:22:24.256Z,3.77
2018-05-24T18:24:51.135Z,3.57
2018-05-24T18:27:18.404Z,4.13
2018-05-24T18:29:45.835Z,4.00
2018-05-24T18:32:12.690Z,4.47
2018-05-24T18:34:39.551Z,4.10
2018-05-24T18:37:06.401Z,4.17
2018-05-24T18:39:33.334Z,4.07
2018-05-24T18:42:00.178Z,3.97
2018-05-24T18:44:27.010Z,4.60
2018-05-24T18:46:54.268Z,4.87
2018-05-24T18:49:21.154Z,4.60
2018-05-24T18:51:48.023Z,4.60
2018-05-24T18:54:14.969Z,4.97
2018-05-24T18:56:41.877Z,4.77
2018-05-24T18:59:08.727Z,4.70
2018-05-24T19:01:35.598Z,5.23
2018-05-24T19:04:02.443Z,4.90
2018-05-24T19:06:29.316Z,5.73
2018-05-24T19:08:56.231Z,4.87
2018-05-24T19:11:23.398Z,4.70
2018-05-24T19:13:50.347Z,4.57
2018-05-24T19:16:17.199Z,4.83
2018-05-24T19:18:44.076Z,5.03
2018-05-24T19:21:10.993Z,5.13
2018-05-24T19:23:38.572Z,5.50
2018-05-24T19:26:05.489Z,5.90
2018-05-24T19:28:32.371Z,6.70
2018-05-24T19:30:59.619Z,5.57
2018-05-24T19:33:26.636Z,9.47
2018-05-24T19:35:53.497Z,5.17
2018-05-24T19:38:20.406Z,6.37
2018-05-24T19:40:47.399Z,6.20
2018-05-24T19:43:14.245Z,7.37
2018-05-24T19:45:41.098Z,5.50
2018-05-24T19:48:07.977Z,5.43
2018-05-24T19:50:34.828Z,6.23
2018-05-24T19:53:01.788Z,6.40
2018-05-24T19:55:28.651Z,6.10
2018-05-24T19:57:55.509Z,6.57
2018-05-24T20:00:22.401Z,6.47
2018-05-24T20:02:49.281Z,6.60
2018-05-24T20:05:17.526Z,7.30
2018-05-24T20:07:44.390Z,6.23
2018-05-24T20:10:11.235Z,6.87
2018-05-24T20:12:38.107Z,8.10
2018-05-24T20:15:04.970Z,7.30
2018-05-24T20:17:31.812Z,7.10
2018-05-24T20:19:58.668Z,8.10
2018-05-24T20:22:25.561Z,7.97
2018-05-24T20:24:52.424Z,8.07
2018-05-24T20:27:19.550Z,8.50
2018-05-24T20:29:46.503Z,8.17
2018-05-24T20:32:13.397Z,8.20
2018-05-24T20:34:40.240Z,8.17
2018-05-24T20:37:07.087Z,8.00
2018-05-24T20:39:33.955Z,8.37
2018-05-24T20:42:01.008Z,8.33
2018-05-24T20:44:27.947Z,8.63
2018-05-24T20:46:54.790Z,8.23
2018-05-24T20:49:21.671Z,7.53
2018-05-24T20:51:48.525Z,9.20
2018-05-24T20:54:15.429Z,8.27
2018-05-24T20:56:42.673Z,9.07
2018-05-24T20:59:09.607Z,9.47
2018-05-24T21:01:36.553Z,8.70
2018-05-24T21:04:03.503Z,9.63
2018-05-24T21:06:30.714Z,9.00
2018-05-24T21:08:57.655Z,9.50
2018-05-24T21:11:24.514Z,9.77
2018-05-24T21:13:51.502Z,9.83
2018-05-24T21:16:18.503Z,10.20
2018-05-24T21:18:45.570Z,10.20
2018-05-24T21:21:12.418Z,10.90
2018-05-24T21:23:39.302Z,10.53
2018-05-24T21:26:06.172Z,9.60
2018-05-24T21:28:33.011Z,10.40
2018-05-24T21:30:59.898Z,9.63
2018-05-24T21:33:26.747Z,10.70
2018-05-24T21:35:53.618Z,10.70
2018-05-24T21:38:20.501Z,10.40
2018-05-24T21:40:47.759Z,10.10
2018-05-24T21:43:15.046Z,10.83
2018-05-24T21:45:42.322Z,12.73
2018-05-24T21:48:09.562Z,11.23
2018-05-24T21:50:36.806Z,13.20
2018-05-24T21:53:03.674Z,14.83
2018-05-24T21:55:30.590Z,10.53
2018-05-24T21:57:57.541Z,12.17
2018-05-24T22:00:24.424Z,11.40
2018-05-24T22:02:51.384Z,12.40
2018-05-24T22:05:18.321Z,11.57
2018-05-24T22:07:45.332Z,12.10
2018-05-24T22:10:12.639Z,12.60
2018-05-24T22:12:39.517Z,13.27
2018-05-24T22:15:06.360Z,12.33
2018-05-24T22:17:33.246Z,12.87
2018-05-24T22:20:00.126Z,13.70
2018-05-24T22:22:27.038Z,14.13
2018-05-24T22:24:53.907Z,13.10
2018-05-24T22:27:21.119Z,13.20
2018-05-24T22:29:48.388Z,12.70
2018-05-24T22:32:15.287Z,13.40
2018-05-24T22:34:42.159Z,12.87
2018-05-24T22:37:09.015Z,12.53
2018-05-24T22:39:35.875Z,11.97
2018-05-24T22:42:02.863Z,13.00
2018-05-24T22:44:29.841Z,11.93
2018-05-24T22:46:57.150Z,12.93
2018-05-24T22:49:24.001Z,13.10
2018-05-24T22:51:50.964Z,13.10
2018-05-24T22:54:17.830Z,14.60
2018-05-24T22:56:44.724Z,13.40
